CheckWX is a tool to help pilots better visualize weather data.  It is not intended as a substitute for an official pre-flight weather briefing.

10:08:34 UTC

LFPV METAR
Villacoublay-Vélizy (BA 107) Air Base Airport
Villacoublay/Vélizy, France
Current

39 mins ago

LFPV 170930Z AUTO 01003KT 330V030 9999 FEW006 OVC036 05/05 Q1009 NOSIG
Observed
Nov-17 @ 09:30 UTC
Wind
  • 010° at 3 KTS
Visibility
10,000+ meters
Flight Rules
VFR
Cloud Levels
  • Few at 600' AGL
  • Overcast at 3,600' AGL
Temperature
C / 41°F
Dewpoint
C / 41°F
Humidity
100%
Altimeter
29.79" Hg
Pressure
1008.92 hPa
Previous

1 hour ago

LFPV 170900Z AUTO 35003KT 320V040 9999 FEW020 OVC035 05/04 Q1009 NOSIG
Observed
Nov-17 @ 09:00 UTC
Wind
  • 350° at 3 KTS
Visibility
10,000+ meters
Flight Rules
VFR
Cloud Levels
  • Few at 2,000' AGL
  • Overcast at 3,500' AGL
Temperature
C / 41°F
Dewpoint
C / 39°F
Humidity
93%
Altimeter
29.79" Hg
Pressure
1008.92 hPa
Previous

2 hours ago

LFPV 170830Z AUTO 35004KT 9999 OVC034 05/04 Q1009 NOSIG
Observed
Nov-17 @ 08:30 UTC
Wind
  • 350° at 4 KTS
Visibility
10,000+ meters
Flight Rules
VFR
Cloud Levels
  • Overcast at 3,400' AGL
Temperature
C / 41°F
Dewpoint
C / 39°F
Humidity
93%
Altimeter
29.79" Hg
Pressure
1008.92 hPa